Time;durP1;ratioP1;P1;durP2;ratioP2;P2;SDS_P1;SDS_P2;PMS_P1;PMS_P2;Temp;Humidity;BMP_temperature;BMP_pressure;BME280_temperature;BME280_humidity;BME280_pressure;Samples;Min_cycle;Max_cycle;Signal;HPM_P1;HPM_P2
2021/06/20 00:00:19;;;;;;;11.85;7.63;;;20.10;99.90;;;19.14;94.70;100964.72;5021316;28;20039;-74
2021/06/20 00:02:46;;;;;;;12.02;7.40;;;20.00;99.90;;;19.03;95.30;100960.22;5003373;28;20441;-74
2021/06/20 00:05:19;;;;;;;9.35;8.02;;;20.00;99.90;;;18.93;95.99;100955.72;5027066;28;20311;-74
2021/06/20 00:07:46;;;;;;;10.45;8.32;;;19.90;99.90;;;18.96;95.59;100959.03;5022822;28;20378;-73
2021/06/20 00:10:24;;;;;;;10.95;7.18;;;20.00;99.90;;;19.01;95.40;100951.50;5012393;28;20030;-74
2021/06/20 00:12:50;;;;;;;13.43;8.13;;;19.90;99.90;;;18.94;95.72;100942.28;5021705;28;20033;-74
2021/06/20 00:15:19;;;;;;;13.98;8.50;;;19.80;99.90;;;18.80;96.22;100937.16;5004763;28;20076;-74
2021/06/20 00:17:46;;;;;;;11.13;8.93;;;19.80;99.90;;;18.76;97.03;100930.31;5020967;28;20100;-74
2021/06/20 00:20:17;;;;;;;10.68;8.38;;;19.80;99.90;;;18.76;97.12;100936.50;5034931;28;20076;-75
2021/06/20 00:22:44;;;;;;;10.57;8.55;;;19.70;99.90;;;18.65;97.21;100947.16;5025054;28;20037;-74
2021/06/20 00:25:12;;;;;;;12.50;8.90;;;19.60;99.90;;;18.56;97.64;100935.38;5020901;28;20040;-74
2021/06/20 00:27:38;;;;;;;13.02;7.93;;;19.50;99.90;;;18.52;97.11;100933.91;5021621;28;20382;-73
2021/06/20 00:30:12;;;;;;;15.02;9.57;;;20.20;99.90;;;18.38;97.50;100935.00;4987454;28;20048;-73
2021/06/20 00:32:38;;;;;;;12.18;8.82;;;19.40;99.90;;;18.26;97.93;100925.25;5021835;28;20043;-75
2021/06/20 00:35:06;;;;;;;11.55;9.40;;;19.20;99.90;;;18.18;98.85;100924.97;5016153;28;20103;-74
2021/06/20 00:37:32;;;;;;;12.50;9.30;;;19.20;99.90;;;18.17;98.91;100921.47;5038529;28;20099;-73
2021/06/20 00:39:58;;;;;;;11.70;8.77;;;19.20;99.90;;;18.27;99.21;100916.28;5018914;28;20471;-73
2021/06/20 00:42:23;;;;;;;13.57;9.88;;;19.30;99.90;;;18.33;99.40;100906.97;5025256;28;20045;-74
2021/06/20 00:44:51;;;;;;;13.55;9.93;;;19.30;99.90;;;18.43;99.37;100913.31;5024446;28;20037;-74
2021/06/20 00:47:19;;;;;;;16.77;10.23;;;19.40;99.90;;;18.52;99.33;100914.41;5034769;28;20033;-74
2021/06/20 00:49:46;;;;;;;15.20;10.20;;;19.40;99.90;;;18.54;98.74;100913.31;5021345;28;20116;-73
2021/06/20 00:52:14;;;;;;;13.25;9.68;;;19.50;99.90;;;18.56;98.65;100907.88;5016458;28;20033;-75
2021/06/20 00:54:47;;;;;;;14.85;9.63;;;19.50;99.90;;;18.61;98.18;100911.03;5020962;28;20501;-74
2021/06/20 00:57:22;;;;;;;10.55;8.32;;;19.50;99.90;;;18.62;97.91;100913.59;5019670;28;20025;-74
2021/06/20 00:59:50;;;;;;;11.13;8.55;;;19.50;99.90;;;18.61;97.64;100909.19;5022325;28;20025;-74
2021/06/20 01:02:18;;;;;;;14.57;9.02;;;19.60;99.90;;;18.61;97.13;100906.53;5017479;28;20037;-73
2021/06/20 01:04:48;;;;;;;11.85;8.13;;;19.60;99.90;;;18.60;97.18;100910.19;5037758;28;20385;-73
2021/06/20 01:07:17;;;;;;;12.07;8.35;;;19.60;99.90;;;18.62;96.73;100907.41;5019852;28;20026;-74
2021/06/20 01:09:43;;;;;;;12.77;8.23;;;19.60;99.90;;;18.59;96.52;100903.13;5023399;28;20021;-74
2021/06/20 01:12:10;;;;;;;13.57;8.43;;;19.50;99.90;;;18.57;96.50;100894.41;5019109;28;20119;-74
2021/06/20 01:14:37;;;;;;;11.52;8.25;;;19.50;99.90;;;18.58;96.31;100882.78;5003978;28;20042;-74
2021/06/20 01:17:04;;;;;;;10.93;8.07;;;19.50;99.90;;;18.55;96.02;100877.72;4999978;28;20030;-75
2021/06/20 01:19:31;;;;;;;9.75;7.65;;;19.50;99.90;;;18.49;96.28;100875.50;4983355;28;20018;-74
2021/06/20 01:22:15;;;;;;;10.13;8.25;;;19.40;99.90;;;18.43;96.21;100875.97;5000306;28;20164;-74
2021/06/20 01:24:41;;;;;;;10.43;7.97;;;19.40;99.90;;;18.40;96.47;100884.19;5000663;28;20040;-74
2021/06/20 01:27:07;;;;;;;11.23;7.82;;;19.40;99.90;;;18.43;95.79;100881.31;5001045;28;20022;-74
2021/06/20 01:29:34;;;;;;;8.02;6.65;;;19.40;99.90;;;18.43;95.61;100875.97;5000332;28;20037;-74
2021/06/20 01:32:04;;;;;;;11.02;7.40;;;19.40;99.90;;;18.42;95.47;100868.94;4999949;28;20029;-74
2021/06/20 01:34:31;;;;;;;14.10;7.80;;;19.50;99.90;;;18.53;95.84;100868.97;4992788;28;20504;-74
2021/06/20 01:36:57;;;;;;;9.07;7.05;;;19.60;99.90;;;18.68;95.38;100861.56;5022022;28;20052;-74
2021/06/20 01:39:25;;;;;;;8.45;7.20;;;19.70;99.90;;;18.73;95.06;100858.56;5020947;28;20045;-74
2021/06/20 01:41:51;;;;;;;7.80;7.00;;;19.70;99.90;;;18.76;94.76;100856.47;5001390;28;20456;-73
2021/06/20 01:44:17;;;;;;;13.23;7.65;;;19.70;99.90;;;18.80;94.44;100846.47;5021652;28;20033;-74
2021/06/20 01:46:49;;;;;;;10.25;7.38;;;19.70;99.90;;;18.72;94.46;100843.50;5021075;28;20045;-74
2021/06/20 01:49:15;;;;;;;12.07;7.68;;;19.70;99.90;;;18.72;94.16;100833.69;5020023;28;20114;-73
2021/06/20 01:51:45;;;;;;;11.70;8.43;;;19.70;99.90;;;18.78;93.59;100824.41;5022358;28;20041;-74
2021/06/20 01:54:12;;;;;;;11.50;8.18;;;19.70;99.90;;;18.74;93.47;100814.91;5020048;28;20403;-74
2021/06/20 01:56:38;;;;;;;9.60;7.60;;;19.70;99.90;;;18.71;93.51;100815.16;5021783;28;20029;-74
2021/06/20 01:59:04;;;;;;;12.30;8.27;;;19.70;99.90;;;18.66;94.15;100810.19;5020827;28;20104;-74
2021/06/20 02:01:30;;;;;;;11.38;8.32;;;19.60;99.90;;;18.58;94.66;100802.78;5004369;28;20033;-73
2021/06/20 02:03:56;;;;;;;12.20;8.32;;;19.60;99.90;;;18.68;94.47;100799.38;5018881;28;20037;-73
2021/06/20 02:06:23;;;;;;;17.48;9.20;;;19.60;99.90;;;18.61;95.15;100793.69;5021753;28;20060;-73
2021/06/20 02:08:48;;;;;;;12.70;10.20;;;19.60;99.90;;;18.73;95.06;100784.72;5021521;28;20514;-74
2021/06/20 02:11:14;;;;;;;19.60;10.70;;;19.70;99.90;;;18.71;94.85;100781.31;5011879;28;20049;-74
2021/06/20 02:13:40;;;;;;;16.20;11.27;;;19.60;99.90;;;18.71;95.38;100776.00;5021414;28;20033;-74
2021/06/20 02:16:06;;;;;;;15.02;11.07;;;19.60;99.90;;;18.68;95.39;100770.03;5021224;28;20021;-73
2021/06/20 02:18:33;;;;;;;15.02;11.40;;;19.60;99.90;;;18.71;95.28;100760.00;5021780;28;20110;-74
2021/06/20 02:20:59;;;;;;;14.82;11.40;;;19.70;99.90;;;18.76;94.81;100755.13;5019785;28;20033;-73
2021/06/20 02:23:25;;;;;;;15.43;11.70;;;19.70;99.90;;;18.74;94.91;100748.22;5017447;28;20495;-73
2021/06/20 02:25:51;;;;;;;13.18;10.63;;;19.70;99.90;;;18.70;94.96;100752.09;5020419;28;20051;-74
2021/06/20 02:28:17;;;;;;;14.75;10.48;;;19.70;99.90;;;18.70;94.75;100755.59;5036012;28;20107;-74
2021/06/20 02:30:43;;;;;;;13.40;10.75;;;19.70;99.90;;;18.68;94.70;100754.88;5036266;28;20028;-74
2021/06/20 02:33:09;;;;;;;14.73;10.75;;;19.70;99.90;;;18.78;94.09;100755.03;5018165;28;20497;-75
2021/06/20 02:35:35;;;;;;;13.88;10.35;;;19.70;99.90;;;18.83;93.46;100759.03;5017547;28;20533;-74
2021/06/20 02:38:01;;;;;;;13.82;10.05;;;19.70;99.90;;;18.75;93.37;100768.59;5021402;28;20131;-74
2021/06/20 02:40:27;;;;;;;13.20;9.38;;;19.70;99.90;;;18.73;93.03;100767.88;5016742;28;20086;-73
2021/06/20 02:42:53;;;;;;;14.75;9.27;;;19.70;99.90;;;18.77;92.43;100769.34;5017890;28;20025;-74
2021/06/20 02:45:22;;;;;;;11.70;9.27;;;19.80;99.90;;;18.85;91.58;100769.56;5003424;28;20513;-74
2021/06/20 02:47:48;;;;;;;12.18;8.10;;;19.80;99.90;;;18.95;90.94;100769.69;4991860;28;20026;-74
2021/06/20 02:50:15;;;;;;;13.07;8.38;;;19.80;99.90;;;18.93;90.65;100772.47;4999657;28;20446;-74
2021/06/20 02:52:43;;;;;;;9.90;7.00;;;19.90;99.90;;;18.94;89.75;100782.19;4999605;28;20398;-75
2021/06/20 02:55:10;;;;;;;11.25;6.28;;;19.90;99.90;;;18.97;89.56;100789.09;4994537;28;20059;-73
2021/06/20 02:57:36;;;;;;;10.13;6.00;;;19.90;99.90;;;18.94;89.40;100784.84;5004547;28;20033;-74
2021/06/20 03:00:05;;;;;;;10.07;6.32;;;19.90;99.90;;;18.99;88.66;100787.16;5001566;28;20030;-74
2021/06/20 03:02:31;;;;;;;6.85;5.75;;;20.00;99.90;;;18.99;88.51;100785.31;5001118;28;20026;-74
2021/06/20 03:04:59;;;;;;;8.38;5.53;;;20.00;99.90;;;18.99;88.26;100788.00;5019514;28;20029;-74
2021/06/20 03:07:26;;;;;;;7.07;5.82;;;20.00;99.90;;;18.98;88.54;100794.28;5018892;28;20025;-74
2021/06/20 03:09:52;;;;;;;8.90;5.60;;;20.00;99.90;;;18.90;88.38;100799.41;5034089;28;20022;-74
2021/06/20 03:12:18;;;;;;;7.65;4.97;;;19.90;99.90;;;18.83;88.96;100806.19;5018334;28;20470;-74
2021/06/20 03:14:46;;;;;;;6.50;4.63;;;19.90;99.90;;;18.80;89.22;100804.63;5000922;28;20028;-75
2021/06/20 03:17:14;;;;;;;12.52;5.25;;;19.80;99.90;;;18.67;89.66;100803.88;5018508;28;20037;-74
2021/06/20 03:19:42;;;;;;;6.15;5.18;;;19.70;99.90;;;18.63;89.38;100797.09;5017711;28;20037;-74
2021/06/20 03:22:08;;;;;;;9.60;5.53;;;19.70;99.90;;;18.54;89.54;100793.34;5019147;28;20028;-75
2021/06/20 03:24:37;;;;;;;8.18;5.65;;;19.70;99.90;;;18.53;89.97;100778.31;5017807;28;20030;-74
2021/06/20 03:27:04;;;;;;;8.20;5.05;;;19.70;99.90;;;18.50;89.83;100778.53;5019784;28;20107;-74
2021/06/20 03:29:30;;;;;;;8.32;4.95;;;19.60;99.90;;;18.48;89.42;100772.47;5020542;28;20021;-74
2021/06/20 03:31:56;;;;;;;12.95;5.15;;;19.60;99.90;;;18.41;89.76;100765.94;5017299;28;20519;-73
2021/06/20 03:34:22;;;;;;;6.40;4.95;;;19.50;99.90;;;18.19;90.81;100759.63;5001880;28;20446;-74
2021/06/20 03:36:48;;;;;;;7.05;4.95;;;19.30;99.90;;;18.06;92.14;100756.22;5018313;28;20034;-74
2021/06/20 03:39:14;;;;;;;7.95;5.40;;;19.30;99.90;;;18.15;92.02;100750.19;5018097;28;20457;-75
2021/06/20 03:41:41;;;;;;;8.60;5.38;;;19.40;99.90;;;18.37;91.19;100749.34;4996358;28;20492;-75
2021/06/20 03:44:08;;;;;;;6.85;4.53;;;19.70;99.90;;;18.74;89.53;100745.56;5001254;28;20113;-74
2021/06/20 03:46:35;;;;;;;6.55;4.53;;;20.30;99.90;;;19.44;86.15;100739.78;4998412;28;20029;-73
2021/06/20 03:49:01;;;;;;;11.95;4.70;;;20.80;99.90;;;20.05;82.44;100735.59;5012959;28;20017;-74
2021/06/20 03:51:27;;;;;;;11.07;4.40;;;21.40;99.90;;;20.48;80.96;100724.66;4999285;28;20024;-74
2021/06/20 03:53:53;;;;;;;7.72;3.60;;;22.00;99.90;;;20.89;78.88;100733.53;5006840;28;20111;-74
2021/06/20 03:56:19;;;;;;;5.30;3.33;;;22.60;99.90;;;21.63;74.93;100717.91;5020993;28;20497;-74
2021/06/20 03:58:45;;;;;;;8.27;3.40;;;22.90;99.90;;;21.57;75.33;100711.28;5018021;28;20021;-74
2021/06/20 04:01:11;;;;;;;6.38;3.40;;;23.30;99.90;;;21.84;73.63;100718.56;5020930;28;20397;-76
2021/06/20 04:03:37;;;;;;;7.30;3.10;;;23.70;99.90;;;22.58;71.53;100708.84;5020650;28;20033;-74
2021/06/20 04:06:03;;;;;;;7.43;2.95;;;24.00;99.90;;;22.32;71.68;100706.88;5011320;28;20440;-74
2021/06/20 04:08:29;;;;;;;9.48;3.28;;;24.30;99.90;;;22.82;70.53;100702.91;5016713;28;20018;-74
2021/06/20 04:10:55;;;;;;;4.28;2.92;;;24.70;99.90;;;23.37;67.99;100707.34;4999738;28;20044;-74
2021/06/20 04:13:21;;;;;;;7.13;2.88;;;24.90;99.90;;;23.43;68.41;100708.53;5019510;28;21613;-75
2021/06/20 04:15:47;;;;;;;4.15;2.75;;;24.90;99.90;;;23.31;67.94;100707.94;5000743;28;20145;-74
2021/06/20 04:18:13;;;;;;;5.82;2.80;;;25.30;99.90;;;23.68;67.25;100704.19;5016271;28;20058;-74
2021/06/20 04:20:39;;;;;;;6.22;3.03;;;25.50;99.90;;;23.78;66.27;100704.13;5035697;28;20029;-74
2021/06/20 04:23:05;;;;;;;4.38;2.72;;;25.10;99.90;;;23.41;68.02;100691.72;5018940;28;20026;-74
2021/06/20 04:25:32;;;;;;;7.13;3.15;;;25.10;99.90;;;23.65;68.14;100696.44;5012459;28;20535;-75
2021/06/20 04:27:58;;;;;;;4.72;2.90;;;25.20;99.90;;;23.70;68.06;100691.44;5019631;28;20033;-73
2021/06/20 04:30:24;;;;;;;7.63;3.20;;;25.70;99.90;;;24.13;66.53;100690.56;5020502;28;20044;-74
2021/06/20 04:32:51;;;;;;;6.85;3.78;;;26.20;99.90;;;24.30;66.00;100680.72;5022571;28;20037;-74
2021/06/20 04:35:19;;;;;;;5.78;3.28;;;26.50;99.90;;;24.77;65.94;100679.34;5021308;28;20029;-74
2021/06/20 04:37:45;;;;;;;6.25;3.72;;;27.30;99.90;;;25.09;64.56;100677.72;5021497;28;20021;-74
2021/06/20 04:40:17;;;;;;;5.47;3.25;;;27.50;99.90;;;26.04;61.27;100669.06;4995039;28;20053;-74
2021/06/20 04:42:43;;;;;;;6.43;3.35;;;27.70;99.90;;;26.15;60.96;100657.88;5018932;28;20025;-74
2021/06/20 04:45:13;;;;;;;7.25;4.22;;;27.00;99.90;;;24.80;66.08;100660.19;5020508;28;20528;-74
2021/06/20 04:47:44;;;;;;;5.18;3.63;;;26.60;99.90;;;25.03;66.17;100652.28;5003034;28;20034;-74
2021/06/20 04:50:11;;;;;;;6.70;3.90;;;26.50;99.90;;;24.97;66.39;100647.59;4998405;28;20037;-74
2021/06/20 04:52:41;;;;;;;6.60;4.07;;;26.70;99.90;;;25.46;65.57;100646.75;5000659;28;20397;-74
2021/06/20 04:55:10;;;;;;;5.13;3.75;;;26.80;99.90;;;25.09;67.49;100640.84;4993055;28;20041;-74
2021/06/20 04:57:37;;;;;;;8.63;4.63;;;26.40;99.90;;;24.72;69.00;100636.78;4985712;28;20536;-74
2021/06/20 05:00:06;;;;;;;7.65;4.40;;;26.80;99.90;;;25.25;67.43;100623.00;5001793;28;20116;-75
2021/06/20 05:02:32;;;;;;;6.65;4.60;;;27.60;99.90;;;26.55;62.51;100620.91;5001320;28;20021;-74
2021/06/20 05:04:58;;;;;;;10.73;5.20;;;27.90;99.90;;;26.16;63.05;100605.63;5014837;28;20092;-74
2021/06/20 05:07:24;;;;;;;6.85;4.43;;;28.20;99.90;;;26.14;64.38;100607.66;4994599;28;20025;-74
2021/06/20 05:09:50;;;;;;;7.43;4.88;;;28.00;99.90;;;26.43;62.29;100601.56;4983303;28;20470;-74
2021/06/20 05:12:16;;;;;;;9.50;5.43;;;28.20;99.90;;;27.22;59.98;100608.66;4995296;28;20034;-74
2021/06/20 05:14:45;;;;;;;8.73;4.60;;;28.60;99.90;;;27.15;60.36;100600.41;4995032;28;20030;-75
2021/06/20 05:17:13;;;;;;;5.97;4.78;;;28.90;99.90;;;27.37;58.72;100599.53;5014187;28;20068;-74
2021/06/20 05:19:40;;;;;;;7.10;4.55;;;29.20;99.90;;;28.20;56.81;100599.41;4986465;28;20018;-74
2021/06/20 05:22:09;;;;;;;7.90;4.93;;;28.80;99.90;;;27.12;59.94;100596.19;5016384;28;20037;-75
2021/06/20 05:24:36;;;;;;;5.80;4.70;;;28.70;99.90;;;27.60;58.04;100604.88;5003000;28;20799;-74
2021/06/20 05:27:03;;;;;;;6.35;4.95;;;29.10;99.90;;;28.20;55.25;100594.00;5020319;28;20105;-74
2021/06/20 05:29:29;;;;;;;7.32;5.30;;;29.10;99.90;;;27.57;57.28;100594.41;5037569;28;20041;-74
2021/06/20 05:31:55;;;;;;;9.77;4.97;;;28.80;99.90;;;27.52;57.89;100596.84;5003810;28;20045;-74
2021/06/20 05:34:21;;;;;;;5.90;4.90;;;28.70;99.90;;;27.32;58.47;100595.69;5018000;28;20036;-74
2021/06/20 05:36:48;;;;;;;8.40;5.45;;;28.20;99.90;;;27.37;58.18;100585.19;5017527;28;20029;-75
2021/06/20 05:39:15;;;;;;;7.88;5.60;;;28.40;99.90;;;27.94;56.46;100581.81;5019128;28;20036;-74
2021/06/20 05:41:41;;;;;;;7.38;5.78;;;28.70;99.90;;;28.37;55.22;100571.09;5019388;28;20021;-74
2021/06/20 05:44:07;;;;;;;6.75;5.18;;;29.70;99.90;;;29.22;52.81;100561.28;5020790;28;20037;-75
2021/06/20 05:46:33;;;;;;;6.07;5.03;;;29.70;99.90;;;28.61;54.13;100567.19;4996667;28;20055;-75
2021/06/20 05:48:59;;;;;;;9.20;5.70;;;29.40;99.90;;;28.16;55.93;100576.47;4996341;28;20657;-74
2021/06/20 05:51:25;;;;;;;7.68;5.55;;;29.90;99.90;;;29.39;52.05;100579.94;5000492;28;22687;-74
2021/06/20 05:53:52;;;;;;;12.00;6.32;;;29.50;99.90;;;27.72;56.68;100582.75;4983788;28;20037;-75
2021/06/20 05:56:18;;;;;;;7.78;5.68;;;29.70;99.90;;;29.31;52.45;100582.81;5002330;28;20030;-74
2021/06/20 05:58:44;;;;;;;12.32;5.70;;;29.10;99.90;;;28.16;54.68;100581.88;5001969;28;20040;-74
2021/06/20 06:01:10;;;;;;;8.07;5.97;;;29.00;99.90;;;28.27;55.47;100589.50;4999185;28;20026;-74
2021/06/20 06:03:36;;;;;;;8.88;6.00;;;28.40;99.90;;;26.81;59.92;100593.59;5017889;28;20034;-74
2021/06/20 06:06:03;;;;;;;9.68;7.10;;;27.90;99.90;;;26.52;61.85;100573.53;5000292;28;20036;-74
2021/06/20 06:08:30;;;;;;;8.52;6.63;;;28.20;99.90;;;27.35;59.29;100585.34;4995968;28;20110;-74
2021/06/20 06:10:56;;;;;;;11.32;6.95;;;28.30;99.90;;;27.27;60.68;100587.28;5001341;28;20033;-74
2021/06/20 06:13:22;;;;;;;9.43;7.05;;;28.20;99.90;;;26.97;61.37;100587.19;5000470;28;20149;-75
2021/06/20 06:15:48;;;;;;;8.10;6.25;;;28.00;99.90;;;27.11;60.54;100585.56;4998940;28;20030;-74
2021/06/20 06:18:14;;;;;;;10.10;7.03;;;28.60;99.90;;;27.89;57.48;100569.91;5001873;28;20021;-74
2021/06/20 06:20:41;;;;;;;9.48;6.53;;;28.60;99.90;;;27.94;57.83;100567.47;5002067;28;20018;-74
2021/06/20 06:23:09;;;;;;;11.32;7.63;;;28.50;99.90;;;28.09;58.01;100570.16;5004096;28;20045;-74
2021/06/20 06:25:35;;;;;;;10.98;7.15;;;28.80;99.90;;;27.86;59.62;100571.09;5015242;28;20061;-73
2021/06/20 06:28:01;;;;;;;9.07;6.85;;;28.50;99.90;;;28.11;59.20;100563.50;4997925;28;20145;-74
2021/06/20 06:30:27;;;;;;;7.63;6.50;;;29.10;99.90;;;28.68;57.21;100569.97;4998913;28;20021;-74
2021/06/20 06:32:53;;;;;;;11.35;7.22;;;28.60;99.90;;;27.65;60.55;100571.84;5001700;28;20042;-74
2021/06/20 06:35:19;;;;;;;8.95;6.90;;;28.30;99.90;;;27.58;61.14;100569.06;5003042;28;20117;-74
2021/06/20 06:37:46;;;;;;;11.50;7.57;;;28.00;99.90;;;27.28;61.96;100573.63;4997621;28;20341;-74
2021/06/20 06:40:13;;;;;;;9.68;7.25;;;27.90;99.90;;;27.51;61.34;100583.50;4998560;28;20034;-74
2021/06/20 06:42:39;;;;;;;8.73;7.13;;;28.20;99.90;;;27.90;60.70;100593.22;5016955;28;20050;-75
2021/06/20 06:45:07;;;;;;;10.10;7.28;;;28.40;99.90;;;27.73;59.61;100582.59;4999851;28;20030;-74
2021/06/20 06:47:36;;;;;;;16.63;7.65;;;28.20;99.90;;;27.78;60.70;100598.25;4999205;28;20126;-74
2021/06/20 06:50:05;;;;;;;9.30;6.82;;;28.40;99.90;;;28.03;59.71;100593.38;4999420;28;20030;-74
2021/06/20 06:52:31;;;;;;;9.30;7.43;;;28.70;99.90;;;28.15;58.68;100591.88;5017142;28;20036;-74
2021/06/20 06:54:57;;;;;;;12.35;7.38;;;28.40;99.90;;;27.80;59.63;100594.31;5009738;28;20370;-74
2021/06/20 06:57:24;;;;;;;11.25;7.55;;;28.40;99.90;;;27.92;60.16;100592.00;5021264;28;20036;-74
2021/06/20 06:59:53;;;;;;;12.70;7.53;;;28.50;99.90;;;28.08;59.73;100587.41;5030054;28;20087;-74
2021/06/20 07:02:22;;;;;;;10.13;7.53;;;28.70;99.90;;;28.43;57.18;100591.16;5024391;28;20025;-74
2021/06/20 07:04:48;;;;;;;7.97;6.55;;;28.80;99.90;;;28.41;59.19;100596.75;5018046;28;20025;-74
2021/06/20 07:07:14;;;;;;;10.80;7.50;;;29.00;99.90;;;28.81;56.55;100591.78;5021234;28;20057;-73
2021/06/20 07:09:40;;;;;;;11.18;7.93;;;29.20;99.90;;;28.98;56.85;100597.75;5019372;28;20362;-74
2021/06/20 07:12:07;;;;;;;9.23;8.32;;;29.30;99.90;;;28.87;54.17;100583.91;5019737;28;20077;-74
2021/06/20 07:14:37;;;;;;;9.50;7.90;;;29.00;99.90;;;28.13;55.01;100588.50;5020856;28;20431;-74
2021/06/20 07:17:08;;;;;;;9.73;7.55;;;29.00;99.90;;;28.50;54.54;100577.72;5014978;28;20105;-76
2021/06/20 07:19:34;;;;;;;10.85;8.30;;;28.70;99.90;;;28.26;55.19;100582.41;5024788;28;20108;-75
2021/06/20 07:22:02;;;;;;;14.68;8.73;;;28.70;99.90;;;28.00;54.44;100580.25;5017289;28;20089;-75
2021/06/20 07:24:29;;;;;;;12.55;7.90;;;28.50;99.90;;;28.11;55.32;100568.09;5036160;28;20018;-73
2021/06/20 07:26:55;;;;;;;13.60;8.85;;;28.40;99.90;;;27.81;56.25;100570.81;5014253;28;20572;-74
2021/06/20 07:29:21;;;;;;;13.55;8.73;;;;;;;27.85;57.59;100557.75;5003402;28;20037;-74
2021/06/20 07:31:47;;;;;;;13.23;9.02;;;28.30;99.90;;;27.67;56.63;100540.06;5018770;28;20025;-74
2021/06/20 07:34:13;;;;;;;13.82;9.07;;;28.20;99.90;;;27.71;56.38;100543.19;5021832;28;20029;-74
2021/06/20 07:36:39;;;;;;;12.15;8.95;;;28.40;99.90;;;28.07;56.30;100535.16;5020455;28;20513;-75
2021/06/20 07:39:06;;;;;;;12.18;9.57;;;28.80;99.90;;;29.03;53.69;100537.56;5018023;28;20022;-74
2021/06/20 07:41:32;;;;;;;13.32;8.45;;;29.30;99.90;;;29.42;52.85;100534.28;5016211;28;20023;-75
2021/06/20 07:43:57;;;;;;;11.55;9.25;;;30.00;99.90;;;30.16;49.76;100548.19;5021189;28;20025;-74
2021/06/20 07:46:23;;;;;;;11.32;9.30;;;30.20;99.90;;;30.17;50.30;100550.72;5010479;28;20053;-74
2021/06/20 07:48:49;;;;;;;10.77;8.75;;;30.80;99.90;;;30.79;49.35;100543.28;5020405;28;20034;-74
2021/06/20 07:51:15;;;;;;;10.80;8.80;;;31.30;99.90;;;31.03;47.35;100546.47;5011631;28;20022;-75
2021/06/20 07:53:41;;;;;;;10.52;8.60;;;31.20;99.90;;;30.92;49.06;100537.06;5016762;28;20602;-74
2021/06/20 07:56:08;;;;;;;10.90;9.13;;;30.80;99.90;;;30.10;49.49;100538.97;5009536;28;20021;-74
2021/06/20 07:58:33;;;;;;;10.68;8.88;;;30.50;99.90;;;30.02;50.77;100531.88;5021197;28;20481;-74
2021/06/20 08:00:59;;;;;;;11.77;9.07;;;30.60;99.90;;;30.26;50.66;100530.47;5023138;28;20040;-74
2021/06/20 08:03:25;;;;;;;10.30;8.80;;;30.10;99.90;;;29.51;51.77;100524.09;5029358;28;20064;-74
2021/06/20 08:05:51;;;;;;;15.02;9.25;;;29.50;99.90;;;28.96;53.33;100523.97;5005940;28;20037;-73
2021/06/20 08:08:18;;;;;;;12.23;9.88;;;29.50;99.90;;;28.93;52.75;100526.22;5002615;28;20525;-74
2021/06/20 08:10:44;;;;;;;10.95;8.85;;;29.70;99.90;;;29.30;52.00;100530.44;5024401;28;20113;-74
2021/06/20 08:13:11;;;;;;;11.02;9.43;;;30.10;99.90;;;29.95;50.49;100520.13;5023485;28;20052;-74
2021/06/20 08:15:37;;;;;;;15.40;8.95;;;30.80;99.90;;;30.62;49.62;100509.44;5038750;28;20484;-74
2021/06/20 08:18:03;;;;;;;12.23;9.27;;;31.10;99.90;;;30.58;49.12;100510.88;5020581;28;20083;-74
2021/06/20 08:20:29;;;;;;;13.10;9.43;;;31.20;99.90;;;30.87;49.74;100509.69;5023829;28;20055;-75
2021/06/20 08:22:54;;;;;;;15.32;9.60;;;31.40;99.90;;;30.94;48.60;100510.50;5024278;28;20156;-74
2021/06/20 08:25:20;;;;;;;11.25;9.65;;;31.40;99.90;;;30.86;48.37;100497.13;5024248;28;20024;-74
2021/06/20 08:27:46;;;;;;;12.48;10.23;;;31.00;99.90;;;29.98;50.22;100494.47;5020106;28;20101;-74
2021/06/20 08:30:14;;;;;;;12.98;10.20;;;30.60;99.90;;;30.17;49.09;100492.84;5022089;28;20049;-74
2021/06/20 08:32:40;;;;;;;14.90;9.70;;;30.50;99.90;;;30.05;49.69;100498.88;5023392;28;20037;-74
2021/06/20 08:35:10;;;;;;;15.30;10.15;;;30.10;99.90;;;29.80;50.36;100500.47;5020808;28;20044;-74
2021/06/20 08:37:36;;;;;;;14.25;9.95;;;30.50;99.90;;;30.29;50.49;100484.97;5034205;28;20040;-74
2021/06/20 08:40:05;;;;;;;12.68;10.23;;;31.00;99.90;;;30.77;49.97;100499.19;5002214;28;20034;-74
2021/06/20 08:42:32;;;;;;;11.40;9.75;;;31.30;99.90;;;30.88;49.60;100499.63;4983365;28;20056;-74
2021/06/20 08:44:58;;;;;;;13.77;10.15;;;31.60;99.90;;;31.25;50.05;100511.69;5004161;28;20050;-74
2021/06/20 08:47:24;;;;;;;12.45;9.88;;;31.60;99.90;;;30.77;50.40;100518.22;5019952;28;20069;-74
2021/06/20 08:49:49;;;;;;;14.52;10.02;;;31.20;99.90;;;30.83;50.71;100516.53;4983881;28;20022;-74
2021/06/20 08:52:16;;;;;;;16.63;9.77;;;31.60;99.90;;;31.44;51.25;100496.41;5000859;28;20050;-75
2021/06/20 08:55:00;;;;;;;14.68;9.98;;;31.50;99.90;;;31.11;48.76;100478.28;5001115;28;20080;-74
2021/06/20 08:57:37;;;;;;;15.05;10.88;;;31.20;99.90;;;30.76;49.68;100466.81;4999392;28;20026;-74
2021/06/20 09:00:12;;;;;;;12.68;10.25;;;31.50;99.90;;;31.36;49.79;100461.25;5000582;28;20113;-74
2021/06/20 09:02:39;;;;;;;12.90;9.90;;;32.00;99.20;;;31.67;45.64;100472.25;4973638;28;20109;-74
2021/06/20 09:05:16;;;;;;;12.48;9.50;;;32.20;99.90;;;31.71;47.18;100499.88;4962172;28;20041;-74
2021/06/20 09:08:02;;;;;;;13.65;9.73;;;32.00;99.90;;;31.67;49.15;100493.19;4983335;28;20123;-74
2021/06/20 09:10:31;;;;;;;11.30;9.90;;;32.30;99.90;;;32.06;47.73;100469.56;4975936;28;20804;-74
2021/06/20 09:13:20;;;;;;;13.80;10.70;;;32.30;99.70;;;31.95;46.82;100473.78;4969206;28;20836;-75
2021/06/20 09:16:08;;;;;;;11.02;9.60;;;32.20;99.90;;;31.65;49.63;100489.84;4962761;28;20049;-74
2021/06/20 09:18:54;;;;;;;14.05;10.32;;;31.90;99.90;;;31.35;48.10;100484.06;4953880;28;20086;-74
2021/06/20 09:21:26;;;;;;;11.75;9.88;;;31.60;99.90;;;31.14;48.36;100458.78;4945941;28;20049;-74
2021/06/20 09:24:16;;;;;;;12.18;9.70;;;31.60;99.20;;;31.04;47.10;100456.53;4979675;28;20094;-74
2021/06/20 09:26:54;;;;;;;11.02;9.10;;;31.70;99.00;;;31.42;46.44;100453.09;4980194;28;20120;-74
2021/06/20 09:29:42;;;;;;;13.77;10.10;;;31.90;99.10;;;31.45;47.37;100452.66;4968074;28;20098;-74
2021/06/20 09:32:38;;;;;;;12.57;9.48;;;32.40;99.90;;;32.20;46.04;100448.50;4969670;28;20565;-74
2021/06/20 09:35:24;;;;;;;12.98;9.75;;;32.90;99.50;;;32.28;44.75;100450.97;4983855;28;20046;-74
2021/06/20 09:38:20;;;;;;;13.70;10.02;;;32.80;97.90;;;32.56;45.04;100450.53;4964970;28;20025;-74
2021/06/20 09:41:21;;;;;;;13.32;9.85;;;32.60;97.90;;;32.24;46.31;100444.28;4977019;28;20167;-75
2021/06/20 09:44:04;;;;;;;15.88;8.93;;;33.10;96.50;;;32.88;42.67;100437.66;4964274;28;21208;-74
2021/06/20 09:46:39;;;;;;;15.00;9.85;;;33.50;96.30;;;33.32;42.69;100434.88;4933733;28;20096;-75
2021/06/20 09:49:59;;;;;;;11.70;9.82;;;33.60;95.30;;;33.43;41.19;100436.00;4960472;28;20466;-75
2021/06/20 09:53:09;;;;;;;10.55;9.25;;;33.50;95.60;;;32.96;42.89;100438.41;4969021;28;20049;-75
2021/06/20 09:55:39;;;;;;;10.43;8.25;;;33.40;96.00;;;32.77;44.50;100443.03;4999365;28;20432;-75
2021/06/20 09:58:06;;;;;;;15.90;8.77;;;33.10;97.20;;;32.76;45.91;100444.91;4976334;28;20042;-75
2021/06/20 10:00:52;;;;;;;13.95;9.35;;;33.30;96.90;;;33.14;44.12;100432.19;4982534;28;20039;-75
2021/06/20 10:03:24;;;;;;;23.17;9.60;;;33.60;95.50;;;32.97;43.11;100429.19;4985659;28;20037;-75
2021/06/20 10:05:54;;;;;;;14.45;9.13;;;33.30;96.10;;;33.12;44.06;100415.22;4980969;28;20612;-74
2021/06/20 10:08:39;;;;;;;12.23;9.25;;;33.60;95.40;;;33.26;43.58;100412.09;4972624;28;20508;-75
2021/06/20 10:11:17;;;;;;;13.32;9.38;;;33.90;96.30;;;34.04;42.85;100409.53;4968439;28;20054;-75
2021/06/20 10:14:04;;;;;;;12.43;8.65;;;34.60;95.50;;;34.75;41.21;100421.44;4988725;28;20107;-75